Airfield :







YOU CAN JOIN US ON...

 
LOGIN :

Register | Disclaimer

   EN    FR    IT 

 









Legend :    VFR   Marginal VFR   IFR   Intensive IFR   Very Intensive IFR
Visi :
Ceiling :
>= 8 km
>= 3000ft
5 to 8 km
1000 to 3000 ft
1500m to 5 km
500 to 1000 ft
800 to 1500m
200 to 500 ft
< 800m
< 200 ft
Symbols :   Thunderstorms  Fog  Heavy snow  Heavy precipitations  Wind > 20 kt







- Airport Elevation : 1194 ft


KPSF - Pittsfield Municipal

CURRENT METAR :
  • 191854Z AUTO 27005KT 10SM CLR 19/04 A3030 RMK AO2 SLP250 T01940044

EXPIRED METARs :
  • 191754Z AUTO 22003KT 10SM CLR 19/02 A3030 RMK AO2 SLP252 T01890017 10194 20044 58018
  • 191654Z AUTO 28004KT 10SM CLR 18/04 A3033 RMK AO2 SLP261 T01780044

TAF KPSF
Valid from the 19 at 18:00 until the 20 at 18:00 UTC


191734Z 1918/2018 28004KT P6SM SKC
TEMPO 2009/2013 1/4SM FG BKN001
FM201300 00000KT P6SM FEW110 SCT200
No reported NOTAMs for that airfield.



MET'MAP, your aeronautical weather chart ! - Copyright ORBIFLY December 2007 - Disclaimer

ORBIFLY MET'MAP TEAM :

Programming & Development : Alexandra Zaïnal
Concept & Development : Baudouin d'Aumeries
Co-Development & Prog : Marc-Olivier Méhu
Technical & hardware support : Manuel Goepfert

Contact : metmap@orbifly.com




SOURCES & CREDITS :

   NOAA